TimeEST,TemperatureF,Dew PointF,Humidity,Sea Level PressureIn,VisibilityMPH,Wind Direction,Wind SpeedMPH,Gust SpeedMPH,PrecipitationIn,Events,Conditions,WindDirDegrees,DateUTC
12:09 AM,32.0,24.8,75,30.00,10.0,WSW,12.7,-,N/A,,Overcast,240,2013-01-17 05:09:00
12:48 AM,32.0,24.8,75,30.02,10.0,WSW,16.1,21.9,N/A,,Overcast,250,2013-01-17 05:48:00
12:53 AM,32.0,25.0,75,30.04,10.0,West,15.0,-,N/A,,Overcast,260,2013-01-17 05:53:00
1:53 AM,32.0,26.1,79,30.06,10.0,WSW,11.5,-,N/A,,Overcast,250,2013-01-17 06:53:00
2:53 AM,32.0,26.1,79,30.07,10.0,West,10.4,-,N/A,,Overcast,260,2013-01-17 07:53:00
3:53 AM,32.0,27.0,82,30.09,10.0,WSW,9.2,-,N/A,,Overcast,250,2013-01-17 08:53:00
4:53 AM,32.0,27.0,82,30.09,10.0,WSW,9.2,-,N/A,,Overcast,250,2013-01-17 09:53:00
5:53 AM,32.0,27.0,82,30.10,10.0,West,9.2,-,N/A,,Overcast,260,2013-01-17 10:53:00
6:53 AM,32.0,28.0,85,30.12,9.0,West,8.1,-,N/A,,Overcast,260,2013-01-17 11:53:00
7:28 AM,30.2,26.6,86,30.12,8.0,WSW,3.5,-,N/A,,Scattered Clouds,250,2013-01-17 12:28:00
7:53 AM,30.0,26.1,85,30.15,8.0,WSW,4.6,-,N/A,,Clear,250,2013-01-17 12:53:00
8:53 AM,30.0,27.0,88,30.17,6.0,WSW,5.8,-,N/A,,Clear,240,2013-01-17 13:53:00
9:42 AM,32.0,28.4,87,30.18,6.0,SW,5.8,-,N/A,,Mostly Cloudy,220,2013-01-17 14:42:00
9:53 AM,32.0,28.0,85,30.20,6.0,SW,6.9,-,N/A,,Mostly Cloudy,220,2013-01-17 14:53:00
10:14 AM,32.0,28.4,87,30.19,6.0,WSW,5.8,-,N/A,,Partly Cloudy,240,2013-01-17 15:14:00
10:53 AM,34.0,28.9,82,30.20,7.0,WSW,9.2,-,N/A,,Partly Cloudy,250,2013-01-17 15:53:00
11:53 AM,36.0,28.9,76,30.19,8.0,West,8.1,-,N/A,,Overcast,270,2013-01-17 16:53:00
12:06 PM,35.6,28.4,75,30.17,8.0,West,8.1,-,N/A,,Mostly Cloudy,270,2013-01-17 17:06:00
12:53 PM,36.0,27.0,70,30.16,10.0,WNW,9.2,-,N/A,,Overcast,290,2013-01-17 17:53:00
1:50 PM,35.6,26.6,70,30.13,10.0,WNW,10.4,-,N/A,,Scattered Clouds,300,2013-01-17 18:50:00
1:53 PM,36.0,27.0,70,30.14,10.0,WNW,9.2,-,N/A,,Partly Cloudy,300,2013-01-17 18:53:00
2:53 PM,36.0,27.0,70,30.13,10.0,WNW,12.7,-,N/A,,Clear,300,2013-01-17 19:53:00
3:53 PM,39.0,27.0,62,30.12,10.0,West,10.4,-,N/A,,Scattered Clouds,280,2013-01-17 20:53:00
4:53 PM,37.0,24.1,59,30.15,10.0,WNW,13.8,-,N/A,,Clear,290,2013-01-17 21:53:00
5:53 PM,33.1,21.0,61,30.17,10.0,NW,20.7,25.3,N/A,,Clear,320,2013-01-17 22:53:00
6:53 PM,30.9,19.9,64,30.23,10.0,WNW,15.0,24.2,N/A,,Clear,300,2013-01-17 23:53:00
7:53 PM,28.0,19.0,69,30.27,10.0,NW,16.1,23.0,N/A,,Partly Cloudy,310,2013-01-18 00:53:00
8:53 PM,25.0,15.1,66,30.30,10.0,NW,18.4,27.6,N/A,,Clear,320,2013-01-18 01:53:00
9:53 PM,23.0,9.0,55,30.33,10.0,NW,17.3,25.3,N/A,,Clear,320,2013-01-18 02:53:00
10:53 PM,21.9,10.9,63,30.34,10.0,NW,9.2,-,N/A,,Clear,310,2013-01-18 03:53:00
11:53 PM,19.9,10.9,68,30.35,10.0,WNW,5.8,-,N/A,,Clear,290,2013-01-18 04:53:00